Sherman, Nebraska
Current Conditions -  °F | °C
As of 1:15 PM on Friday 28 Nov 2014 (Local Time) from KHDE Reporting Station
Clear Clear  
Wind Chill: 67°   Ceiling: Unl
Heat Index: 67°   Visibility: 10mi
Dew Point: 26°   Wind: 14mph
Humidity: 22%   Direction: 220°SW
Pressure: 29.73"   Gusts: 17mph
Location:  40.3942°N, 99.1223°W
Report Text: KHDE 281915Z AUTO 22012G15KT 10SM CLR 19/M03 A2973 RMK AO2 T01941031
Loading
Personal Weather Stations






























Interactive Weather Map New forecast layout! Learn more

10-Day Weather Forecast

Advertisements
Track Severe Weather on mobile